sensor_id;sensor_type;location;lat;lon;timestamp;pressure;altitude;pressure_sealevel;temperature;humidity
20710;BME280;10516;51.518;9.864;2023-05-24T00:00:27;99303.16;;;10.84;65.38
20710;BME280;10516;51.518;9.864;2023-05-24T00:02:53;99341.91;;;10.59;66.01
20710;BME280;10516;51.518;9.864;2023-05-24T00:05:18;99336.41;;;10.25;65.55
20710;BME280;10516;51.518;9.864;2023-05-24T00:07:43;99328.06;;;10.73;65.96
20710;BME280;10516;51.518;9.864;2023-05-24T00:10:09;99336.13;;;10.90;65.21
20710;BME280;10516;51.518;9.864;2023-05-24T00:12:35;99330.41;;;10.98;65.17
20710;BME280;10516;51.518;9.864;2023-05-24T00:15:00;99342.25;;;10.90;65.01
20710;BME280;10516;51.518;9.864;2023-05-24T00:17:26;99325.75;;;10.25;66.52
20710;BME280;10516;51.518;9.864;2023-05-24T00:19:54;99342.75;;;10.87;65.16
20710;BME280;10516;51.518;9.864;2023-05-24T00:22:19;99331.97;;;10.82;65.44
20710;BME280;10516;51.518;9.864;2023-05-24T00:24:46;99323.72;;;10.84;65.15
20710;BME280;10516;51.518;9.864;2023-05-24T00:27:14;99342.94;;;10.97;64.40
20710;BME280;10516;51.518;9.864;2023-05-24T00:29:39;99336.22;;;10.95;64.65
20710;BME280;10516;51.518;9.864;2023-05-24T00:32:05;99326.50;;;10.89;64.24
20710;BME280;10516;51.518;9.864;2023-05-24T00:34:30;99323.41;;;10.80;64.56
20710;BME280;10516;51.518;9.864;2023-05-24T00:36:56;99345.19;;;10.89;64.79
20710;BME280;10516;51.518;9.864;2023-05-24T00:39:22;99325.09;;;10.86;64.44
20710;BME280;10516;51.518;9.864;2023-05-24T00:41:47;99328.47;;;10.82;64.43
20710;BME280;10516;51.518;9.864;2023-05-24T00:44:13;99326.19;;;10.74;65.05
20710;BME280;10516;51.518;9.864;2023-05-24T00:46:38;99344.50;;;10.82;65.21
20710;BME280;10516;51.518;9.864;2023-05-24T00:49:04;99339.56;;;10.74;64.41
20710;BME280;10516;51.518;9.864;2023-05-24T00:51:29;99345.06;;;10.84;64.59
20710;BME280;10516;51.518;9.864;2023-05-24T00:53:56;99334.16;;;10.57;65.05
20710;BME280;10516;51.518;9.864;2023-05-24T00:56:22;99328.34;;;10.48;65.17
20710;BME280;10516;51.518;9.864;2023-05-24T00:58:48;99325.53;;;10.67;65.06
20710;BME280;10516;51.518;9.864;2023-05-24T01:01:15;99327.91;;;10.80;64.90
20710;BME280;10516;51.518;9.864;2023-05-24T01:03:40;99324.97;;;10.93;64.40
20710;BME280;10516;51.518;9.864;2023-05-24T01:06:06;99340.16;;;10.92;64.39
20710;BME280;10516;51.518;9.864;2023-05-24T01:14:28;99325.25;;;10.80;64.53
20710;BME280;10516;51.518;9.864;2023-05-24T01:25:11;99321.13;;;10.61;64.65
20710;BME280;10516;51.518;9.864;2023-05-24T01:27:39;99312.81;;;10.45;64.55
20710;BME280;10516;51.518;9.864;2023-05-24T01:30:05;99307.81;;;10.49;65.08
20710;BME280;10516;51.518;9.864;2023-05-24T01:32:31;99312.72;;;10.40;64.47
20710;BME280;10516;51.518;9.864;2023-05-24T01:34:57;99319.13;;;10.39;65.29
20710;BME280;10516;51.518;9.864;2023-05-24T01:37:22;99286.53;;;10.26;65.19
20710;BME280;10516;51.518;9.864;2023-05-24T01:39:48;99319.81;;;10.35;65.26
20710;BME280;10516;51.518;9.864;2023-05-24T01:42:25;99321.53;;;10.41;64.69
20710;BME280;10516;51.518;9.864;2023-05-24T01:44:56;99316.00;;;10.19;65.77
20710;BME280;10516;51.518;9.864;2023-05-24T01:50:14;99287.47;;;10.08;65.20
20710;BME280;10516;51.518;9.864;2023-05-24T01:52:43;99293.97;;;10.12;65.12
20710;BME280;10516;51.518;9.864;2023-05-24T01:55:16;99316.22;;;10.18;65.41
20710;BME280;10516;51.518;9.864;2023-05-24T01:57:43;99319.00;;;10.23;65.94
20710;BME280;10516;51.518;9.864;2023-05-24T02:00:11;99300.94;;;10.02;65.85
20710;BME280;10516;51.518;9.864;2023-05-24T02:02:38;99276.00;;;9.96;65.65
20710;BME280;10516;51.518;9.864;2023-05-24T02:05:04;99307.75;;;10.09;65.70
20710;BME280;10516;51.518;9.864;2023-05-24T02:07:29;99301.47;;;9.34;66.93
20710;BME280;10516;51.518;9.864;2023-05-24T02:09:55;99306.50;;;9.54;67.59
20710;BME280;10516;51.518;9.864;2023-05-24T02:12:20;99305.09;;;9.86;66.82
20710;BME280;10516;51.518;9.864;2023-05-24T02:14:45;99297.56;;;9.60;66.70
20710;BME280;10516;51.518;9.864;2023-05-24T02:17:15;99284.47;;;9.70;66.28
20710;BME280;10516;51.518;9.864;2023-05-24T02:19:42;99282.84;;;9.92;65.83
20710;BME280;10516;51.518;9.864;2023-05-24T02:22:07;99302.66;;;9.38;66.84
20710;BME280;10516;51.518;9.864;2023-05-24T02:24:33;99291.50;;;9.30;68.06
20710;BME280;10516;51.518;9.864;2023-05-24T02:26:58;99288.75;;;9.36;67.29
20710;BME280;10516;51.518;9.864;2023-05-24T02:29:23;99281.47;;;9.43;67.00
20710;BME280;10516;51.518;9.864;2023-05-24T02:31:49;99296.63;;;9.43;67.11
20710;BME280;10516;51.518;9.864;2023-05-24T02:34:20;99303.81;;;9.77;66.94
20710;BME280;10516;51.518;9.864;2023-05-24T02:36:47;99296.41;;;9.56;66.83
20710;BME280;10516;51.518;9.864;2023-05-24T02:39:12;99275.16;;;9.26;67.19
20710;BME280;10516;51.518;9.864;2023-05-24T02:41:38;99301.59;;;9.51;67.36
20710;BME280;10516;51.518;9.864;2023-05-24T02:44:03;99277.41;;;9.64;66.70
20710;BME280;10516;51.518;9.864;2023-05-24T02:46:29;99283.78;;;9.74;66.29
20710;BME280;10516;51.518;9.864;2023-05-24T02:48:54;99288.28;;;9.86;66.21
20710;BME280;10516;51.518;9.864;2023-05-24T02:51:19;99293.97;;;9.89;66.05
20710;BME280;10516;51.518;9.864;2023-05-24T02:53:45;99299.06;;;9.79;66.52
20710;BME280;10516;51.518;9.864;2023-05-24T02:56:10;99280.06;;;9.64;66.81
20710;BME280;10516;51.518;9.864;2023-05-24T02:58:37;99286.34;;;9.69;66.18
20710;BME280;10516;51.518;9.864;2023-05-24T03:01:06;99293.53;;;9.80;66.64
20710;BME280;10516;51.518;9.864;2023-05-24T03:03:31;99286.44;;;9.74;66.74
20710;BME280;10516;51.518;9.864;2023-05-24T03:05:56;99305.34;;;9.85;66.82
20710;BME280;10516;51.518;9.864;2023-05-24T03:08:22;99291.66;;;9.81;67.20
20710;BME280;10516;51.518;9.864;2023-05-24T03:10:47;99290.03;;;9.80;66.99
20710;BME280;10516;51.518;9.864;2023-05-24T03:13:13;99288.66;;;9.77;66.28
20710;BME280;10516;51.518;9.864;2023-05-24T03:15:38;99289.47;;;9.78;66.44
20710;BME280;10516;51.518;9.864;2023-05-24T03:18:03;99294.56;;;9.91;66.75
20710;BME280;10516;51.518;9.864;2023-05-24T03:20:29;99299.53;;;9.88;67.16
20710;BME280;10516;51.518;9.864;2023-05-24T03:22:55;99285.84;;;9.72;66.50
20710;BME280;10516;51.518;9.864;2023-05-24T03:25:20;99287.59;;;9.78;67.19
20710;BME280;10516;51.518;9.864;2023-05-24T03:27:45;99291.78;;;9.86;66.90
20710;BME280;10516;51.518;9.864;2023-05-24T03:30:11;99270.56;;;9.68;67.22
20710;BME280;10516;51.518;9.864;2023-05-24T03:32:37;99290.50;;;9.89;66.97
20710;BME280;10516;51.518;9.864;2023-05-24T03:35:02;99291.91;;;9.91;67.27
20710;BME280;10516;51.518;9.864;2023-05-24T03:37:27;99297.34;;;9.85;67.18
20710;BME280;10516;51.518;9.864;2023-05-24T03:39:53;99306.00;;;9.92;66.65
20710;BME280;10516;51.518;9.864;2023-05-24T03:42:18;99312.97;;;9.58;67.57
20710;BME280;10516;51.518;9.864;2023-05-24T03:44:45;99282.75;;;9.75;67.40
20710;BME280;10516;51.518;9.864;2023-05-24T03:47:10;99295.47;;;9.85;67.19
20710;BME280;10516;51.518;9.864;2023-05-24T03:49:36;99297.81;;;9.93;66.51
20710;BME280;10516;51.518;9.864;2023-05-24T03:52:01;99282.75;;;9.75;66.94
20710;BME280;10516;51.518;9.864;2023-05-24T03:54:27;99307.66;;;9.81;67.36
20710;BME280;10516;51.518;9.864;2023-05-24T03:56:52;99297.47;;;9.78;67.75
20710;BME280;10516;51.518;9.864;2023-05-24T03:59:18;99322.63;;;9.94;66.85
20710;BME280;10516;51.518;9.864;2023-05-24T04:01:44;99325.41;;;9.87;67.76
20710;BME280;10516;51.518;9.864;2023-05-24T04:04:09;99324.47;;;9.81;67.82
20710;BME280;10516;51.518;9.864;2023-05-24T04:06:35;99314.69;;;9.52;68.06
20710;BME280;10516;51.518;9.864;2023-05-24T04:09:02;99331.06;;;9.79;68.62
20710;BME280;10516;51.518;9.864;2023-05-24T04:11:29;99317.50;;;9.92;67.88
20710;BME280;10516;51.518;9.864;2023-05-24T04:13:57;99324.34;;;9.88;67.45
20710;BME280;10516;51.518;9.864;2023-05-24T04:16:24;99322.50;;;9.89;67.75
20710;BME280;10516;51.518;9.864;2023-05-24T04:18:50;99319.81;;;9.77;68.26
20710;BME280;10516;51.518;9.864;2023-05-24T04:21:16;99314.63;;;9.82;68.25
20710;BME280;10516;51.518;9.864;2023-05-24T04:23:41;99326.44;;;9.98;67.53
20710;BME280;10516;51.518;9.864;2023-05-24T04:26:07;99319.47;;;9.85;68.49
20710;BME280;10516;51.518;9.864;2023-05-24T04:28:34;99325.03;;;9.72;68.77
20710;BME280;10516;51.518;9.864;2023-05-24T04:31:00;99318.66;;;9.73;68.57
20710;BME280;10516;51.518;9.864;2023-05-24T04:33:26;99317.50;;;9.92;68.38
20710;BME280;10516;51.518;9.864;2023-05-24T04:35:52;99316.34;;;9.88;68.28
20710;BME280;10516;51.518;9.864;2023-05-24T04:38:18;99296.06;;;9.75;68.92
20710;BME280;10516;51.518;9.864;2023-05-24T04:40:44;99323.28;;;10.01;67.96
20710;BME280;10516;51.518;9.864;2023-05-24T04:43:09;99320.75;;;9.94;68.79
20710;BME280;10516;51.518;9.864;2023-05-24T04:45:36;99329.44;;;10.01;68.28
20710;BME280;10516;51.518;9.864;2023-05-24T04:48:01;99304.53;;;9.84;68.98
20710;BME280;10516;51.518;9.864;2023-05-24T04:50:27;99307.66;;;9.93;68.32
20710;BME280;10516;51.518;9.864;2023-05-24T04:52:53;99309.38;;;9.99;68.20
20710;BME280;10516;51.518;9.864;2023-05-24T04:55:18;99308.81;;;9.85;68.95
20710;BME280;10516;51.518;9.864;2023-05-24T04:57:44;99313.91;;;9.87;68.85
20710;BME280;10516;51.518;9.864;2023-05-24T05:00:09;99308.69;;;9.92;68.75
20710;BME280;10516;51.518;9.864;2023-05-24T05:02:35;99307.41;;;9.48;70.33
20710;BME280;10516;51.518;9.864;2023-05-24T05:05:01;99327.47;;;10.08;68.46
20710;BME280;10516;51.518;9.864;2023-05-24T05:07:26;99309.16;;;9.65;70.04
20710;BME280;10516;51.518;9.864;2023-05-24T05:09:51;99306.28;;;10.13;68.99
20710;BME280;10516;51.518;9.864;2023-05-24T05:12:17;99322.97;;;9.74;70.27
20710;BME280;10516;51.518;9.864;2023-05-24T05:14:42;99312.88;;;9.99;69.19
20710;BME280;10516;51.518;9.864;2023-05-24T05:17:07;99327.63;;;10.13;68.86
20710;BME280;10516;51.518;9.864;2023-05-24T05:19:33;99331.66;;;10.04;68.80
20710;BME280;10516;51.518;9.864;2023-05-24T05:21:58;99329.09;;;9.63;70.76
20710;BME280;10516;51.518;9.864;2023-05-24T05:24:24;99333.94;;;9.43;71.45
20710;BME280;10516;51.518;9.864;2023-05-24T05:26:49;99345.00;;;10.04;69.64
20710;BME280;10516;51.518;9.864;2023-05-24T05:29:14;99330.19;;;9.32;71.71
20710;BME280;10516;51.518;9.864;2023-05-24T05:31:40;99340.78;;;9.62;71.30
20710;BME280;10516;51.518;9.864;2023-05-24T05:34:05;99343.94;;;8.88;73.66
20710;BME280;10516;51.518;9.864;2023-05-24T05:36:36;99356.72;;;8.97;73.96
20710;BME280;10516;51.518;9.864;2023-05-24T05:39:08;99361.22;;;9.27;74.27
20710;BME280;10516;51.518;9.864;2023-05-24T05:41:40;99366.81;;;9.48;73.05
20710;BME280;10516;51.518;9.864;2023-05-24T05:44:08;99356.94;;;10.25;69.96
20710;BME280;10516;51.518;9.864;2023-05-24T05:46:34;99371.41;;;9.94;70.74
20710;BME280;10516;51.518;9.864;2023-05-24T05:48:59;99363.78;;;9.33;72.57
20710;BME280;10516;51.518;9.864;2023-05-24T05:51:25;99377.31;;;10.08;70.68
20710;BME280;10516;51.518;9.864;2023-05-24T05:53:50;99350.19;;;9.64;72.15
20710;BME280;10516;51.518;9.864;2023-05-24T05:56:16;99360.66;;;10.12;71.04
20710;BME280;10516;51.518;9.864;2023-05-24T05:58:41;99364.94;;;10.36;70.62
20710;BME280;10516;51.518;9.864;2023-05-24T06:01:07;99373.94;;;10.59;69.69
20710;BME280;10516;51.518;9.864;2023-05-24T06:03:32;99371.22;;;10.82;68.20
20710;BME280;10516;51.518;9.864;2023-05-24T06:05:58;99370.50;;;11.14;67.10
20710;BME280;10516;51.518;9.864;2023-05-24T06:08:23;99344.31;;;10.72;68.36
20710;BME280;10516;51.518;9.864;2023-05-24T06:10:48;99350.75;;;10.47;69.74
20710;BME280;10516;51.518;9.864;2023-05-24T06:13:14;99338.16;;;10.71;68.61
20710;BME280;10516;51.518;9.864;2023-05-24T06:15:39;99365.06;;;10.81;69.14
20710;BME280;10516;51.518;9.864;2023-05-24T06:18:05;99374.84;;;10.76;68.62
20710;BME280;10516;51.518;9.864;2023-05-24T06:20:31;99354.78;;;10.62;69.05
20710;BME280;10516;51.518;9.864;2023-05-24T06:22:56;99365.78;;;10.77;68.95
20710;BME280;10516;51.518;9.864;2023-05-24T06:25:22;99343.59;;;10.36;69.98
20710;BME280;10516;51.518;9.864;2023-05-24T06:27:49;99374.41;;;10.67;69.57
20710;BME280;10516;51.518;9.864;2023-05-24T06:30:15;99358.78;;;10.87;69.03
20710;BME280;10516;51.518;9.864;2023-05-24T06:32:41;99365.94;;;10.98;68.00
20710;BME280;10516;51.518;9.864;2023-05-24T06:35:07;99372.97;;;11.16;68.11
20710;BME280;10516;51.518;9.864;2023-05-24T06:37:33;99384.19;;;11.46;67.09
20710;BME280;10516;51.518;9.864;2023-05-24T06:39:58;99383.50;;;11.22;68.21
20710;BME280;10516;51.518;9.864;2023-05-24T06:42:23;99383.03;;;11.14;68.33
20710;BME280;10516;51.518;9.864;2023-05-24T06:44:49;99392.22;;;11.18;67.66
20710;BME280;10516;51.518;9.864;2023-05-24T06:47:14;99385.25;;;11.17;67.37
20710;BME280;10516;51.518;9.864;2023-05-24T06:49:40;99389.47;;;11.13;67.12
20710;BME280;10516;51.518;9.864;2023-05-24T06:52:06;99386.19;;;11.39;67.46
20710;BME280;10516;51.518;9.864;2023-05-24T06:54:32;99363.41;;;11.20;66.52
20710;BME280;10516;51.518;9.864;2023-05-24T06:56:58;99385.81;;;11.19;67.72
20710;BME280;10516;51.518;9.864;2023-05-24T06:59:23;99381.97;;;11.26;67.38
20710;BME280;10516;51.518;9.864;2023-05-24T07:01:49;99362.41;;;11.38;66.61
20710;BME280;10516;51.518;9.864;2023-05-24T07:04:17;99378.34;;;11.32;66.91
20710;BME280;10516;51.518;9.864;2023-05-24T07:06:43;99388.97;;;11.61;66.49
20710;BME280;10516;51.518;9.864;2023-05-24T07:09:10;99375.38;;;11.62;65.73
20710;BME280;10516;51.518;9.864;2023-05-24T07:11:35;99372.28;;;11.37;66.80
20710;BME280;10516;51.518;9.864;2023-05-24T07:14:00;99370.84;;;11.63;66.19
20710;BME280;10516;51.518;9.864;2023-05-24T07:16:26;99381.53;;;11.46;66.52
20710;BME280;10516;51.518;9.864;2023-05-24T07:18:51;99393.53;;;11.32;66.32
20710;BME280;10516;51.518;9.864;2023-05-24T07:21:17;99389.78;;;11.73;65.62
20710;BME280;10516;51.518;9.864;2023-05-24T07:23:42;99387.69;;;11.63;65.74
20710;BME280;10516;51.518;9.864;2023-05-24T07:26:07;99394.31;;;11.61;66.02
20710;BME280;10516;51.518;9.864;2023-05-24T07:28:36;99384.44;;;11.61;66.35
20710;BME280;10516;51.518;9.864;2023-05-24T07:31:04;99373.75;;;11.61;65.74
20710;BME280;10516;51.518;9.864;2023-05-24T07:33:29;99383.72;;;11.66;65.32
20710;BME280;10516;51.518;9.864;2023-05-24T07:35:55;99399.22;;;11.07;65.97
20710;BME280;10516;51.518;9.864;2023-05-24T07:38:20;99385.88;;;11.80;65.22
20710;BME280;10516;51.518;9.864;2023-05-24T07:40:46;99376.31;;;11.68;65.71
20710;BME280;10516;51.518;9.864;2023-05-24T07:43:12;99396.41;;;11.42;65.80
20710;BME280;10516;51.518;9.864;2023-05-24T07:45:37;99405.16;;;10.58;67.23
20710;BME280;10516;51.518;9.864;2023-05-24T07:48:02;99384.84;;;10.97;67.89
20710;BME280;10516;51.518;9.864;2023-05-24T07:50:28;99384.97;;;11.47;65.80
20710;BME280;10516;51.518;9.864;2023-05-24T07:52:55;99404.91;;;11.67;65.91
20710;BME280;10516;51.518;9.864;2023-05-24T07:55:21;99380.84;;;11.67;64.91
20710;BME280;10516;51.518;9.864;2023-05-24T07:57:46;99398.97;;;11.82;65.08
20710;BME280;10516;51.518;9.864;2023-05-24T08:00:12;99403.03;;;11.68;65.07
20710;BME280;10516;51.518;9.864;2023-05-24T08:02:41;99386.44;;;11.82;64.23
20710;BME280;10516;51.518;9.864;2023-05-24T08:05:07;99401.50;;;11.88;64.82
20710;BME280;10516;51.518;9.864;2023-05-24T08:07:34;99387.41;;;11.76;65.05
20710;BME280;10516;51.518;9.864;2023-05-24T08:09:59;99388.13;;;11.88;65.30
20710;BME280;10516;51.518;9.864;2023-05-24T08:12:25;99383.19;;;12.14;63.54
20710;BME280;10516;51.518;9.864;2023-05-24T08:14:54;99367.22;;;12.02;62.93
20710;BME280;10516;51.518;9.864;2023-05-24T08:17:20;99394.78;;;11.69;64.28
20710;BME280;10516;51.518;9.864;2023-05-24T08:19:45;99386.38;;;12.32;62.41
20710;BME280;10516;51.518;9.864;2023-05-24T08:22:10;99369.28;;;11.50;61.62
20710;BME280;10516;51.518;9.864;2023-05-24T08:24:36;99374.75;;;11.88;63.45
20710;BME280;10516;51.518;9.864;2023-05-24T08:27:02;99372.63;;;11.90;62.16
20710;BME280;10516;51.518;9.864;2023-05-24T08:29:28;99377.13;;;11.85;62.37
20710;BME280;10516;51.518;9.864;2023-05-24T08:31:53;99382.38;;;12.13;61.79
20710;BME280;10516;51.518;9.864;2023-05-24T08:34:19;99377.13;;;11.85;63.15
20710;BME280;10516;51.518;9.864;2023-05-24T08:36:44;99377.28;;;12.12;63.05
20710;BME280;10516;51.518;9.864;2023-05-24T08:39:10;99366.84;;;12.32;62.00
20710;BME280;10516;51.518;9.864;2023-05-24T08:41:35;99381.94;;;12.38;62.73
20710;BME280;10516;51.518;9.864;2023-05-24T08:44:07;99389.44;;;12.41;62.65
20710;BME280;10516;51.518;9.864;2023-05-24T08:46:34;99398.63;;;12.45;62.32
20710;BME280;10516;51.518;9.864;2023-05-24T08:49:01;99399.31;;;12.57;62.34
20710;BME280;10516;51.518;9.864;2023-05-24T08:51:32;99399.59;;;12.77;62.44
20710;BME280;10516;51.518;9.864;2023-05-24T08:53:58;99395.81;;;13.00;62.42
20710;BME280;10516;51.518;9.864;2023-05-24T08:56:24;99393.97;;;13.22;60.15
20710;BME280;10516;51.518;9.864;2023-05-24T08:58:52;99384.69;;;12.26;62.26
20710;BME280;10516;51.518;9.864;2023-05-24T09:01:18;99386.84;;;12.46;60.84
20710;BME280;10516;51.518;9.864;2023-05-24T09:03:45;99394.88;;;13.06;61.53
20710;BME280;10516;51.518;9.864;2023-05-24T09:06:16;99396.91;;;13.20;60.67
20710;BME280;10516;51.518;9.864;2023-05-24T09:08:41;99394.72;;;13.17;59.71
20710;BME280;10516;51.518;9.864;2023-05-24T09:11:07;99404.88;;;13.15;60.80
20710;BME280;10516;51.518;9.864;2023-05-24T09:13:33;99401.88;;;12.30;61.23
20710;BME280;10516;51.518;9.864;2023-05-24T09:16:00;99375.34;;;12.67;61.49
20710;BME280;10516;51.518;9.864;2023-05-24T09:18:25;99380.25;;;12.15;58.73
20710;BME280;10516;51.518;9.864;2023-05-24T09:20:51;99387.22;;;12.54;62.56
20710;BME280;10516;51.518;9.864;2023-05-24T09:23:17;99398.72;;;13.41;60.04
20710;BME280;10516;51.518;9.864;2023-05-24T09:25:47;99397.16;;;12.97;59.95
20710;BME280;10516;51.518;9.864;2023-05-24T09:28:14;99405.06;;;12.27;59.71
20710;BME280;10516;51.518;9.864;2023-05-24T09:30:44;99406.41;;;12.30;61.16
20710;BME280;10516;51.518;9.864;2023-05-24T09:33:10;99402.50;;;12.75;61.30
20710;BME280;10516;51.518;9.864;2023-05-24T09:35:40;99402.50;;;12.75;60.53
20710;BME280;10516;51.518;9.864;2023-05-24T09:38:06;99406.28;;;13.44;60.05
20710;BME280;10516;51.518;9.864;2023-05-24T09:40:42;99406.47;;;13.38;59.86
20710;BME280;10516;51.518;9.864;2023-05-24T09:43:08;99389.69;;;13.47;59.58
20710;BME280;10516;51.518;9.864;2023-05-24T09:45:40;99393.50;;;13.57;59.62
20710;BME280;10516;51.518;9.864;2023-05-24T09:48:09;99396.31;;;13.67;59.51
20710;BME280;10516;51.518;9.864;2023-05-24T09:50:35;99397.34;;;13.66;59.59
20710;BME280;10516;51.518;9.864;2023-05-24T09:53:01;99397.41;;;13.71;59.26
20710;BME280;10516;51.518;9.864;2023-05-24T09:55:28;99355.59;;;13.16;59.61
20710;BME280;10516;51.518;9.864;2023-05-24T09:58:04;99397.06;;;13.62;59.30
20710;BME280;10516;51.518;9.864;2023-05-24T10:00:36;99381.09;;;13.77;58.61
20710;BME280;10516;51.518;9.864;2023-05-24T10:03:05;99374.09;;;13.76;58.54
20710;BME280;10516;51.518;9.864;2023-05-24T10:05:35;99376.41;;;13.94;57.98
20710;BME280;10516;51.518;9.864;2023-05-24T10:08:02;99378.69;;;14.12;56.58
20710;BME280;10516;51.518;9.864;2023-05-24T10:10:30;99383.63;;;13.94;56.87
20710;BME280;10516;51.518;9.864;2023-05-24T10:12:57;99392.16;;;14.22;56.24
20710;BME280;10516;51.518;9.864;2023-05-24T10:15:24;99372.78;;;14.10;58.30
20710;BME280;10516;51.518;9.864;2023-05-24T10:17:50;99371.47;;;14.18;57.18
20710;BME280;10516;51.518;9.864;2023-05-24T10:20:16;99387.94;;;13.63;56.89
20710;BME280;10516;51.518;9.864;2023-05-24T10:22:43;99389.22;;;13.56;58.53
20710;BME280;10516;51.518;9.864;2023-05-24T10:25:32;99381.88;;;12.98;57.95
20710;BME280;10516;51.518;9.864;2023-05-24T10:28:07;99389.69;;;12.99;57.43
20710;BME280;10516;51.518;9.864;2023-05-24T10:33:06;99376.16;;;13.11;59.26
20710;BME280;10516;51.518;9.864;2023-05-24T10:35:32;99376.56;;;13.03;58.10
20710;BME280;10516;51.518;9.864;2023-05-24T10:38:05;99368.22;;;13.79;56.90
20710;BME280;10516;51.518;9.864;2023-05-24T10:40:32;99362.75;;;14.01;56.49
20710;BME280;10516;51.518;9.864;2023-05-24T10:42:58;99358.91;;;13.55;51.78
20710;BME280;10516;51.518;9.864;2023-05-24T10:47:49;99390.28;;;13.54;53.90
20710;BME280;10516;51.518;9.864;2023-05-24T10:50:21;99376.97;;;12.90;55.33
20710;BME280;10516;51.518;9.864;2023-05-24T10:52:50;99393.28;;;12.45;56.43
20710;BME280;10516;51.518;9.864;2023-05-24T10:55:17;99380.13;;;12.43;58.09
20710;BME280;10516;51.518;9.864;2023-05-24T10:57:43;99406.25;;;12.36;59.06
20710;BME280;10516;51.518;9.864;2023-05-24T11:03:05;99391.63;;;12.44;59.71
20710;BME280;10516;51.518;9.864;2023-05-24T11:08:34;99400.63;;;12.76;60.37
20710;BME280;10516;51.518;9.864;2023-05-24T11:11:10;99378.16;;;12.55;60.63
20710;BME280;10516;51.518;9.864;2023-05-24T11:13:39;99380.84;;;12.39;58.82
20710;BME280;10516;51.518;9.864;2023-05-24T11:16:05;99378.34;;;12.92;59.59
20710;BME280;10516;51.518;9.864;2023-05-24T11:18:31;99383.81;;;13.50;58.83
20710;BME280;10516;51.518;9.864;2023-05-24T11:20:59;99386.22;;;14.15;57.66
20710;BME280;10516;51.518;9.864;2023-05-24T11:23:25;99382.66;;;15.03;55.86
20710;BME280;10516;51.518;9.864;2023-05-24T11:25:51;99387.66;;;14.70;51.75
20710;BME280;10516;51.518;9.864;2023-05-24T11:28:17;99363.44;;;15.52;54.41
20710;BME280;10516;51.518;9.864;2023-05-24T11:30:44;99388.22;;;15.99;53.29
20710;BME280;10516;51.518;9.864;2023-05-24T11:33:20;99377.16;;;16.16;53.88
20710;BME280;10516;51.518;9.864;2023-05-24T11:35:50;99389.78;;;16.25;53.43
20710;BME280;10516;51.518;9.864;2023-05-24T11:38:18;99390.84;;;16.34;53.01
20710;BME280;10516;51.518;9.864;2023-05-24T11:40:47;99401.94;;;16.18;53.71
20710;BME280;10516;51.518;9.864;2023-05-24T11:43:17;99373.41;;;15.82;54.10
20710;BME280;10516;51.518;9.864;2023-05-24T11:45:46;99388.50;;;15.83;54.28
20710;BME280;10516;51.518;9.864;2023-05-24T11:48:13;99394.94;;;15.92;54.19
20710;BME280;10516;51.518;9.864;2023-05-24T11:50:40;99400.59;;;15.75;54.83
20710;BME280;10516;51.518;9.864;2023-05-24T11:53:10;99405.94;;;15.45;55.42
20710;BME280;10516;51.518;9.864;2023-05-24T11:55:36;99410.00;;;15.67;55.26
20710;BME280;10516;51.518;9.864;2023-05-24T11:58:10;99402.06;;;15.16;55.60
20710;BME280;10516;51.518;9.864;2023-05-24T12:00:36;99394.06;;;15.31;55.54
20710;BME280;10516;51.518;9.864;2023-05-24T12:03:02;99404.34;;;15.64;54.85
20710;BME280;10516;51.518;9.864;2023-05-24T12:05:31;99399.25;;;15.83;54.76
20710;BME280;10516;51.518;9.864;2023-05-24T12:08:08;99389.28;;;15.78;54.99
20710;BME280;10516;51.518;9.864;2023-05-24T12:10:35;99379.59;;;15.67;54.60
20710;BME280;10516;51.518;9.864;2023-05-24T12:13:05;99409.75;;;15.79;55.20
20710;BME280;10516;51.518;9.864;2023-05-24T12:15:31;99394.50;;;15.02;56.52
20710;BME280;10516;51.518;9.864;2023-05-24T12:17:57;99400.72;;;15.18;57.05
20710;BME280;10516;51.518;9.864;2023-05-24T12:20:26;99388.91;;;15.19;56.89
20710;BME280;10516;51.518;9.864;2023-05-24T12:22:52;99395.66;;;15.37;56.87
20710;BME280;10516;51.518;9.864;2023-05-24T12:25:19;99402.06;;;15.16;57.04
20710;BME280;10516;51.518;9.864;2023-05-24T12:27:54;99410.59;;;14.41;58.30
20710;BME280;10516;51.518;9.864;2023-05-24T12:30:22;99400.44;;;14.53;57.91
20710;BME280;10516;51.518;9.864;2023-05-24T12:32:48;99401.94;;;14.80;58.32
20710;BME280;10516;51.518;9.864;2023-05-24T12:35:15;99395.63;;;15.17;57.03
20710;BME280;10516;51.518;9.864;2023-05-24T12:37:41;99389.28;;;15.48;56.18
20710;BME280;10516;51.518;9.864;2023-05-24T12:40:18;99407.84;;;15.95;55.42
20710;BME280;10516;51.518;9.864;2023-05-24T12:42:55;99394.94;;;16.27;54.96
20710;BME280;10516;51.518;9.864;2023-05-24T12:45:26;99406.97;;;16.75;53.61
20710;BME280;10516;51.518;9.864;2023-05-24T12:47:53;99387.28;;;16.69;53.44
20710;BME280;10516;51.518;9.864;2023-05-24T12:50:19;99396.97;;;16.80;53.82
20710;BME280;10516;51.518;9.864;2023-05-24T12:52:46;99364.59;;;16.80;53.47
20710;BME280;10516;51.518;9.864;2023-05-24T12:55:13;99391.78;;;16.99;53.50
20710;BME280;10516;51.518;9.864;2023-05-24T12:57:40;99388.78;;;17.05;52.91
20710;BME280;10516;51.518;9.864;2023-05-24T13:00:07;99394.91;;;17.21;53.38
20710;BME280;10516;51.518;9.864;2023-05-24T13:02:32;99373.38;;;16.22;53.23
20710;BME280;10516;51.518;9.864;2023-05-24T13:04:58;99389.03;;;15.74;54.22
20710;BME280;10516;51.518;9.864;2023-05-24T13:07:23;99382.78;;;16.34;55.11
20710;BME280;10516;51.518;9.864;2023-05-24T13:09:48;99394.13;;;16.16;55.25
20710;BME280;10516;51.518;9.864;2023-05-24T13:12:17;99393.81;;;16.53;53.68
20710;BME280;10516;51.518;9.864;2023-05-24T13:14:42;99391.47;;;15.96;54.89
20710;BME280;10516;51.518;9.864;2023-05-24T13:17:08;99378.78;;;16.22;54.39
20710;BME280;10516;51.518;9.864;2023-05-24T13:19:34;99386.06;;;15.81;55.08
20710;BME280;10516;51.518;9.864;2023-05-24T13:21:59;99376.56;;;15.28;56.37
20710;BME280;10516;51.518;9.864;2023-05-24T13:24:26;99365.06;;;15.68;54.99
20710;BME280;10516;51.518;9.864;2023-05-24T13:26:51;99365.63;;;14.73;57.13